Time;durP1;ratioP1;P1;durP2;ratioP2;P2;SDS_P1;SDS_P2;PMS_P1;PMS_P2;Temp;Humidity;BMP_temperature;BMP_pressure;BME280_temperature;BME280_humidity;BME280_pressure;Samples;Min_cycle;Max_cycle;Signal;HPM_P1;HPM_P2
2022/07/31 00:00:29;;;;;;;3.87;1.57;;;24.70;99.90;;;;;;1042743;28;20437;-72
2022/07/31 00:00:59;;;;;;;2.53;1.43;;;24.70;99.90;;;;;;1042693;28;20029;-72
2022/07/31 00:01:32;;;;;;;2.43;1.50;;;24.70;99.90;;;;;;1042612;28;20258;-74
2022/07/31 00:02:02;;;;;;;2.10;1.48;;;24.70;99.90;;;;;;1042136;28;20049;-72
2022/07/31 00:02:34;;;;;;;2.90;1.70;;;24.70;99.90;;;;;;1042916;28;20047;-72
2022/07/31 00:03:05;;;;;;;1.88;1.65;;;24.70;99.90;;;;;;1042219;28;20044;-73
2022/07/31 00:03:36;;;;;;;2.15;1.38;;;24.70;99.90;;;;;;1042723;28;20021;-73
2022/07/31 00:04:07;;;;;;;2.40;1.80;;;24.70;99.90;;;;;;1042277;28;20021;-73
2022/07/31 00:04:38;;;;;;;3.17;1.67;;;24.70;99.90;;;;;;1042815;28;20530;-72
2022/07/31 00:05:09;;;;;;;2.83;1.90;;;24.70;99.90;;;;;;1038299;28;20076;-72
2022/07/31 00:05:40;;;;;;;3.27;1.97;;;24.70;99.90;;;;;;1042661;28;20104;-73
2022/07/31 00:06:10;;;;;;;2.97;1.40;;;24.70;99.90;;;;;;1042296;28;20373;-73
2022/07/31 00:06:42;;;;;;;2.40;1.80;;;24.70;99.90;;;;;;1042737;28;20563;-72
2022/07/31 00:07:13;;;;;;;2.35;1.60;;;24.60;99.90;;;;;;1042788;28;20017;-72
2022/07/31 00:07:43;;;;;;;2.57;2.03;;;24.60;99.90;;;;;;1043096;28;20025;-74
2022/07/31 00:08:14;;;;;;;3.00;2.00;;;24.70;99.90;;;;;;1042362;28;20726;-73
2022/07/31 00:08:45;;;;;;;2.33;1.80;;;24.60;99.90;;;;;;1042793;28;20566;-73
2022/07/31 00:09:15;;;;;;;1.87;1.33;;;24.60;99.90;;;;;;1038345;28;20030;-73
2022/07/31 00:09:46;;;;;;;1.57;1.47;;;24.60;99.90;;;;;;1034529;28;20517;-73
2022/07/31 00:10:16;;;;;;;3.20;1.87;;;24.60;99.90;;;;;;1038270;28;20052;-72
2022/07/31 00:10:47;;;;;;;1.93;1.40;;;24.60;99.90;;;;;;1038676;28;20026;-73
2022/07/31 00:11:17;;;;;;;3.20;1.83;;;24.60;99.90;;;;;;1042605;28;20075;-72
2022/07/31 00:11:48;;;;;;;1.90;1.67;;;24.60;99.90;;;;;;1042483;28;20076;-73
2022/07/31 00:12:20;;;;;;;2.50;1.77;;;24.60;99.90;;;;;;1038820;28;20126;-72
2022/07/31 00:12:51;;;;;;;1.73;1.40;;;24.60;99.90;;;;;;1038541;28;20022;-73
2022/07/31 00:13:22;;;;;;;1.95;1.33;;;24.60;99.90;;;;;;1038528;28;20032;-72
2022/07/31 00:13:53;;;;;;;2.88;1.95;;;24.60;99.90;;;;;;1038162;28;20024;-74
2022/07/31 00:14:23;;;;;;;2.30;1.97;;;24.60;99.90;;;;;;1034467;28;20014;-74
2022/07/31 00:14:54;;;;;;;2.10;1.70;;;24.60;99.90;;;;;;1035198;28;20049;-73
2022/07/31 00:15:25;;;;;;;2.33;1.53;;;24.50;99.90;;;;;;1032943;28;20018;-73
2022/07/31 00:15:55;;;;;;;2.20;1.30;;;24.50;99.90;;;;;;1039278;28;20093;-73
2022/07/31 00:16:26;;;;;;;1.73;1.30;;;24.50;99.90;;;;;;1035325;28;20724;-74
2022/07/31 00:16:57;;;;;;;3.90;2.07;;;24.50;99.90;;;;;;1035364;28;20592;-72
2022/07/31 00:17:27;;;;;;;3.87;1.60;;;24.50;99.90;;;;;;1039240;28;20026;-73
2022/07/31 00:17:59;;;;;;;2.20;1.70;;;24.50;99.90;;;;;;1039413;28;20009;-72
2022/07/31 00:18:29;;;;;;;1.65;1.55;;;24.50;99.90;;;;;;1039274;28;20385;-74
2022/07/31 00:19:00;;;;;;;2.17;1.70;;;24.50;99.90;;;;;;1039276;28;20452;-73
2022/07/31 00:19:31;;;;;;;2.00;1.80;;;24.50;99.90;;;;;;1039334;28;20452;-74
2022/07/31 00:20:01;;;;;;;2.47;1.47;;;24.50;99.90;;;;;;1039101;28;20014;-73
2022/07/31 00:20:32;;;;;;;2.37;1.60;;;24.50;99.90;;;;;;1043496;28;20090;-73
2022/07/31 00:21:02;;;;;;;1.87;1.67;;;25.70;99.90;;;;;;1043289;28;20051;-73
2022/07/31 00:21:33;;;;;;;1.70;1.60;;;24.50;99.90;;;;;;1043949;28;20414;-73
2022/07/31 00:22:04;;;;;;;1.40;1.30;;;24.50;99.90;;;;;;1043297;28;20005;-73
2022/07/31 00:22:34;;;;;;;2.63;1.90;;;24.50;99.90;;;;;;1043903;28;20010;-73
2022/07/31 00:23:05;;;;;;;2.40;1.57;;;24.50;99.90;;;;;;1043704;28;20563;-72
2022/07/31 00:23:35;;;;;;;3.23;1.53;;;24.50;99.90;;;;;;1043941;28;20103;-74
2022/07/31 00:24:06;;;;;;;2.53;1.50;;;24.60;99.90;;;;;;1043455;28;20009;-74
2022/07/31 00:24:37;;;;;;;2.20;1.73;;;24.50;99.90;;;;;;1043475;28;20017;-74
2022/07/31 00:25:09;;;;;;;3.10;1.73;;;24.50;99.90;;;;;;1043089;28;20119;-72
2022/07/31 00:25:40;;;;;;;2.90;1.90;;;24.40;99.90;;;;;;1043557;28;20021;-74
2022/07/31 00:26:10;;;;;;;2.20;2.00;;;24.40;99.90;;;;;;1036841;28;20044;-74
2022/07/31 00:26:41;;;;;;;1.97;1.70;;;24.40;99.90;;;;;;1039231;28;20474;-73
2022/07/31 00:27:12;;;;;;;2.45;1.73;;;24.40;99.90;;;;;;1039819;28;20021;-74
2022/07/31 00:27:43;;;;;;;2.33;1.67;;;24.40;99.90;;;;;;1043512;28;20013;-72
2022/07/31 00:28:14;;;;;;;2.75;1.90;;;24.40;99.90;;;;;;1043269;28;20527;-73
2022/07/31 00:28:46;;;;;;;2.13;1.50;;;24.40;99.90;;;;;;1039527;28;20665;-72
2022/07/31 00:29:17;;;;;;;2.47;1.70;;;24.40;99.90;;;;;;1039430;28;20005;-73
2022/07/31 00:29:48;;;;;;;3.77;1.80;;;24.40;99.90;;;;;;1039162;28;20124;-73
2022/07/31 00:30:19;;;;;;;2.80;1.80;;;24.40;99.90;;;;;;1039098;28;20021;-73
2022/07/31 00:30:50;;;;;;;2.00;1.73;;;24.40;99.90;;;;;;1041921;28;20014;-72
2022/07/31 00:31:21;;;;;;;3.97;1.70;;;24.40;99.90;;;;;;1043177;28;20025;-73
2022/07/31 00:31:51;;;;;;;2.10;1.60;;;24.40;99.90;;;;;;1043323;28;20021;-72
2022/07/31 00:32:22;;;;;;;2.33;1.73;;;24.50;99.90;;;;;;1043220;28;20021;-73
2022/07/31 00:32:52;;;;;;;2.13;1.70;;;24.40;99.90;;;;;;1043502;28;20427;-72
2022/07/31 00:33:23;;;;;;;1.90;1.67;;;24.50;99.90;;;;;;1043253;28;20624;-74
2022/07/31 00:33:54;;;;;;;2.67;1.57;;;24.40;99.90;;;;;;1043829;28;20017;-72
2022/07/31 00:34:24;;;;;;;2.50;1.67;;;24.50;99.90;;;;;;1043507;28;20291;-72
2022/07/31 00:34:55;;;;;;;3.53;1.70;;;24.40;99.90;;;;;;1043775;28;20667;-73
2022/07/31 00:35:26;;;;;;;2.47;1.57;;;24.40;99.90;;;;;;1043711;28;20408;-74
2022/07/31 00:35:57;;;;;;;1.90;1.58;;;24.40;99.90;;;;;;1043234;28;20130;-73
2022/07/31 00:36:27;;;;;;;2.23;1.70;;;24.40;99.90;;;;;;1039171;28;20068;-73
2022/07/31 00:36:58;;;;;;;1.93;1.60;;;24.40;99.90;;;;;;1039011;28;20018;-73
2022/07/31 00:37:28;;;;;;;2.70;1.63;;;24.40;99.90;;;;;;1039065;28;20017;-74
2022/07/31 00:37:59;;;;;;;2.67;1.70;;;24.40;99.90;;;;;;1034927;28;20025;-73
2022/07/31 00:38:29;;;;;;;1.87;1.43;;;24.40;99.90;;;;;;1039348;28;20021;-73
2022/07/31 00:39:00;;;;;;;2.50;1.27;;;24.40;99.90;;;;;;1038993;28;20014;-73
2022/07/31 00:39:31;;;;;;;2.43;1.87;;;24.40;99.90;;;;;;1039295;28;20144;-72
2022/07/31 00:40:04;;;;;;;2.28;1.58;;;24.40;99.90;;;;;;1038783;28;20022;-73
2022/07/31 00:40:35;;;;;;;4.20;2.17;;;24.40;99.90;;;;;;1043392;28;20013;-72
2022/07/31 00:41:06;;;;;;;2.70;2.03;;;24.40;99.90;;;;;;1043150;28;20049;-73
2022/07/31 00:41:41;;;;;;;1.57;1.43;;;24.40;99.90;;;;;;1039814;28;20021;-73
2022/07/31 00:42:23;;;;;;;3.08;2.17;;;24.40;99.90;;;;;;1035523;28;20014;-74
2022/07/31 00:42:53;;;;;;;2.33;1.83;;;24.40;99.90;;;;;;1042676;28;20074;-73
2022/07/31 00:43:24;;;;;;;2.37;1.60;;;25.00;99.90;;;;;;1039167;28;20043;-73
2022/07/31 00:43:54;;;;;;;2.13;1.67;;;24.40;99.90;;;;;;1040704;28;20013;-73
2022/07/31 00:44:25;;;;;;;2.50;2.00;;;24.40;99.90;;;;;;1043095;28;20020;-73
2022/07/31 00:44:55;;;;;;;2.97;2.07;;;24.40;99.90;;;;;;1043126;28;20033;-73
2022/07/31 00:45:26;;;;;;;2.40;1.70;;;24.40;99.90;;;;;;1035164;28;20018;-74
2022/07/31 00:45:58;;;;;;;3.37;1.87;;;24.40;99.90;;;;;;1030765;28;20019;-72
2022/07/31 00:46:28;;;;;;;2.67;1.80;;;24.40;99.90;;;;;;1035726;28;20771;-73
2022/07/31 00:46:59;;;;;;;2.07;1.50;;;24.40;99.90;;;;;;1034960;28;20018;-73
2022/07/31 00:47:30;;;;;;;2.47;1.80;;;24.40;99.90;;;;;;1031236;28;20536;-73
2022/07/31 00:48:02;;;;;;;1.87;1.67;;;24.40;99.90;;;;;;1031104;28;20524;-73
2022/07/31 00:48:34;;;;;;;3.13;1.88;;;24.40;99.90;;;;;;1035434;28;20021;-73
2022/07/31 00:49:06;;;;;;;2.00;1.80;;;24.40;99.90;;;;;;1039517;28;20449;-73
2022/07/31 00:49:37;;;;;;;2.28;1.80;;;24.40;99.90;;;;;;1039656;28;20010;-73
2022/07/31 00:50:08;;;;;;;4.53;1.73;;;24.40;99.90;;;;;;1043010;28;20104;-72
2022/07/31 00:50:39;;;;;;;2.92;1.80;;;24.40;99.90;;;;;;1043305;28;20013;-73
2022/07/31 00:51:10;;;;;;;2.50;1.90;;;24.40;99.90;;;;;;1043146;28;20017;-73
2022/07/31 00:51:40;;;;;;;2.70;1.57;;;24.30;99.90;;;;;;1043319;28;20021;-72
2022/07/31 00:52:11;;;;;;;4.57;1.90;;;24.30;99.90;;;;;;1043588;28;20037;-73
2022/07/31 00:52:42;;;;;;;1.93;1.60;;;24.30;99.90;;;;;;1042845;28;20411;-73
2022/07/31 00:53:12;;;;;;;1.87;1.73;;;24.40;99.90;;;;;;1039477;28;20508;-73
2022/07/31 00:53:43;;;;;;;2.03;1.80;;;24.30;99.90;;;;;;1038588;28;20032;-73
2022/07/31 00:54:13;;;;;;;4.33;1.80;;;24.30;99.90;;;;;;1035437;28;20022;-73
2022/07/31 00:54:44;;;;;;;1.93;1.63;;;24.30;99.90;;;;;;1038877;28;20100;-73
2022/07/31 00:55:14;;;;;;;2.47;1.67;;;24.30;99.90;;;;;;1039235;28;20021;-74
2022/07/31 00:55:45;;;;;;;2.03;1.80;;;24.30;99.90;;;;;;1038864;28;20074;-73
2022/07/31 00:56:16;;;;;;;3.20;1.60;;;24.30;99.90;;;;;;1039677;28;20071;-74
2022/07/31 00:56:46;;;;;;;2.30;1.53;;;24.30;99.90;;;;;;1041539;28;20026;-72
2022/07/31 00:57:17;;;;;;;2.73;2.00;;;24.30;99.90;;;;;;1043720;28;20035;-73
2022/07/31 00:57:47;;;;;;;3.43;1.63;;;24.30;99.90;;;;;;1042873;28;20410;-73
2022/07/31 00:58:19;;;;;;;3.20;2.83;;;24.30;99.90;;;;;;1043244;28;20017;-72
2022/07/31 00:58:50;;;;;;;5.18;3.30;;;24.30;99.90;;;;;;1042883;28;20024;-73
2022/07/31 00:59:20;;;;;;;4.72;3.30;;;24.30;99.90;;;;;;1043626;28;20025;-72
2022/07/31 00:59:51;;;;;;;4.20;2.87;;;24.30;99.90;;;;;;1043005;28;20083;-73
2022/07/31 01:00:22;;;;;;;5.40;2.73;;;24.20;99.90;;;;;;1041568;28;20025;-74
2022/07/31 01:00:53;;;;;;;4.47;3.42;;;24.30;99.90;;;;;;1039095;28;20079;-72
2022/07/31 01:01:23;;;;;;;4.40;3.43;;;24.30;99.90;;;;;;1039134;28;20080;-74
2022/07/31 01:01:54;;;;;;;4.73;3.30;;;24.20;99.90;;;;;;1041477;28;20630;-73
2022/07/31 01:02:25;;;;;;;3.67;3.03;;;24.30;99.90;;;;;;1043627;28;20021;-74
2022/07/31 01:02:55;;;;;;;4.83;2.83;;;24.30;99.90;;;;;;1043432;28;20056;-72
2022/07/31 01:03:26;;;;;;;3.87;3.47;;;24.30;99.90;;;;;;1043118;28;20122;-73
2022/07/31 01:03:56;;;;;;;4.17;3.03;;;24.30;99.90;;;;;;1043019;28;20113;-72
2022/07/31 01:04:28;;;;;;;5.60;3.50;;;24.20;99.90;;;;;;1043643;28;20017;-73
2022/07/31 01:04:59;;;;;;;4.38;3.28;;;24.30;99.90;;;;;;1043081;28;20017;-73
2022/07/31 01:05:29;;;;;;;3.10;2.70;;;24.30;99.90;;;;;;1043673;28;20013;-74
2022/07/31 01:06:00;;;;;;;4.90;3.40;;;24.20;99.90;;;;;;1043015;28;20686;-73
2022/07/31 01:06:31;;;;;;;4.03;3.47;;;24.20;99.90;;;;;;1039213;28;20672;-72
2022/07/31 01:07:02;;;;;;;3.80;3.23;;;24.20;99.90;;;;;;1034774;28;20026;-73
2022/07/31 01:07:32;;;;;;;5.38;4.07;;;24.30;99.90;;;;;;1035438;28;20113;-75
2022/07/31 01:08:03;;;;;;;4.23;3.33;;;24.20;99.90;;;;;;1038855;28;20021;-74
2022/07/31 01:08:34;;;;;;;5.23;3.87;;;24.30;99.90;;;;;;1039331;28;20030;-74
2022/07/31 01:09:05;;;;;;;5.40;3.92;;;24.30;99.90;;;;;;1039063;28;20150;-73
2022/07/31 01:09:36;;;;;;;5.80;3.80;;;24.20;99.90;;;;;;1039741;28;20132;-74
2022/07/31 01:10:09;;;;;;;5.80;4.03;;;24.20;99.90;;;;;;1039142;28;20104;-73
2022/07/31 01:10:53;;;;;;;5.07;3.25;;;24.20;99.90;;;;;;1040250;28;20014;-73
2022/07/31 01:11:46;;;;;;;3.88;3.35;;;24.20;99.90;;;;;;1042902;28;20051;-73
2022/07/31 01:12:34;;;;;;;6.05;3.58;;;24.20;99.90;;;;;;1043210;28;20021;-72
2022/07/31 01:13:14;;;;;;;4.47;3.67;;;24.20;99.90;;;;;;1043228;28;20127;-73
2022/07/31 01:13:51;;;;;;;3.75;3.05;;;24.30;99.90;;;;;;1041037;28;20017;-74
2022/07/31 01:14:26;;;;;;;6.30;3.67;;;24.20;99.90;;;;;;1039375;28;20017;-73
2022/07/31 01:15:01;;;;;;;4.43;3.30;;;24.30;99.90;;;;;;1039546;28;20022;-74
2022/07/31 01:15:33;;;;;;;4.15;3.00;;;24.20;99.90;;;;;;1041477;28;20029;-73
2022/07/31 01:16:06;;;;;;;4.07;3.47;;;24.20;99.90;;;;;;1038850;28;20041;-73
2022/07/31 01:16:45;;;;;;;5.30;3.17;;;24.20;99.90;;;;;;1035712;28;20128;-73
2022/07/31 01:17:16;;;;;;;;;;;24.20;99.90;;;;;;1035685;28;20029;-73
2022/07/31 01:17:49;;;;;;;3.75;2.65;;;24.30;99.90;;;;;;1036523;28;19909;-73
2022/07/31 01:18:22;;;;;;;3.00;2.60;;;24.20;99.90;;;;;;1036598;28;20026;-73
2022/07/31 01:18:55;;;;;;;4.10;3.30;;;24.20;99.90;;;;;;1035554;28;20637;-73
2022/07/31 01:19:33;;;;;;;4.40;2.97;;;24.20;99.90;;;;;;1038958;28;20045;-73
2022/07/31 01:20:04;;;;;;;4.10;2.90;;;24.20;99.90;;;;;;1040727;28;20400;-72
2022/07/31 01:20:36;;;;;;;3.22;2.72;;;24.20;99.90;;;;;;1043175;28;20504;-73
2022/07/31 01:21:12;;;;;;;3.25;2.53;;;24.20;99.90;;;;;;1038773;28;20032;-73
2022/07/31 01:21:52;;;;;;;3.30;2.50;;;24.20;99.90;;;;;;1039955;28;20032;-72
2022/07/31 01:23:03;;;;;;;4.35;2.72;;;24.20;99.90;;;;;;1043166;28;20146;-72
2022/07/31 01:23:54;;;;;;;3.13;2.47;;;24.20;99.90;;;;;;1043600;28;20021;-74
2022/07/31 01:24:41;;;;;;;2.85;2.55;;;24.20;99.90;;;;;;1043594;28;20033;-73
2022/07/31 01:25:44;;;;;;;3.78;2.40;;;24.20;99.90;;;;;;1043389;28;20024;-74
2022/07/31 01:26:40;;;;;;;3.47;3.03;;;24.20;99.90;;;;;;1042332;28;20102;-74
2022/07/31 01:27:31;;;;;;;3.53;2.08;;;24.20;99.90;;;;;;1042556;28;20035;-73
2022/07/31 01:28:08;;;;;;;3.28;2.38;;;24.20;99.90;;;;;;1039097;28;20021;-73
2022/07/31 01:29:05;;;;;;;3.63;2.80;;;24.20;99.90;;;;;;1039212;28;20071;-72
2022/07/31 01:29:46;;;;;;;3.72;2.50;;;24.20;99.90;;;;;;1038975;28;20028;-74
2022/07/31 01:30:18;;;;;;;2.83;2.30;;;24.20;99.90;;;;;;1039130;28;20013;-72
2022/07/31 01:30:59;;;;;;;4.40;2.75;;;24.10;99.90;;;;;;1039286;28;20028;-73
2022/07/31 01:31:35;;;;;;;4.28;2.47;;;24.20;99.90;;;;;;1039234;28;20013;-74
2022/07/31 01:32:15;;;;;;;4.72;2.88;;;24.20;99.90;;;;;;1039259;28;20105;-73
2022/07/31 01:32:53;;;;;;;3.42;2.50;;;24.20;99.90;;;;;;1038981;28;20045;-73
2022/07/31 01:33:29;;;;;;;4.40;2.40;;;24.20;99.90;;;;;;1039008;28;20021;-72
2022/07/31 01:34:15;;;;;;;3.50;2.33;;;24.20;99.90;;;;;;1042405;28;20009;-75
2022/07/31 01:34:51;;;;;;;3.05;2.40;;;24.10;99.90;;;;;;1043423;28;20029;-73
2022/07/31 01:35:27;;;;;;;3.45;2.70;;;24.10;99.90;;;;;;1043065;28;20035;-73
2022/07/31 01:36:04;;;;;;;3.05;2.58;;;24.10;99.90;;;;;;1043098;28;20024;-73
2022/07/31 01:36:38;;;;;;;3.88;2.70;;;24.10;99.90;;;;;;1043036;28;20032;-74
2022/07/31 01:37:19;;;;;;;5.43;2.85;;;24.20;99.90;;;;;;1043066;28;20025;-73
2022/07/31 01:37:54;;;;;;;3.60;2.25;;;24.10;99.90;;;;;;1042781;28;20025;-74
2022/07/31 01:38:31;;;;;;;3.67;2.80;;;24.10;99.90;;;;;;1043383;28;20021;-73
2022/07/31 01:39:02;;;;;;;2.30;2.10;;;24.10;99.90;;;;;;1043611;28;20071;-73
2022/07/31 01:39:35;;;;;;;3.25;2.80;;;24.10;99.90;;;;;;1043057;28;20017;-74
2022/07/31 01:40:13;;;;;;;3.08;2.53;;;24.10;99.90;;;;;;1042933;28;20019;-72
2022/07/31 01:40:47;;;;;;;2.63;2.40;;;24.10;99.90;;;;;;1042908;28;20013;-72
2022/07/31 01:41:23;;;;;;;3.15;2.45;;;24.10;99.90;;;;;;1042400;28;20017;-73
2022/07/31 01:41:56;;;;;;;2.20;2.00;;;24.10;99.90;;;;;;1038635;28;20018;-72
2022/07/31 01:42:29;;;;;;;4.68;2.83;;;24.80;99.90;;;;;;1035018;28;20014;-73
2022/07/31 01:43:05;;;;;;;4.35;2.42;;;24.10;99.90;;;;;;1038761;28;20033;-73
2022/07/31 01:43:41;;;;;;;3.95;2.55;;;24.10;99.90;;;;;;1040802;28;20026;-72
2022/07/31 01:44:14;;;;;;;2.65;2.45;;;24.10;99.90;;;;;;1042936;28;20131;-73
2022/07/31 01:44:49;;;;;;;3.42;2.78;;;24.10;99.90;;;;;;1043471;28;20017;-72
2022/07/31 01:45:23;;;;;;;2.42;1.80;;;24.10;99.90;;;;;;1041824;28;20017;-73
2022/07/31 01:45:56;;;;;;;3.50;2.40;;;24.10;99.90;;;;;;1039287;28;20175;-73
2022/07/31 01:46:29;;;;;;;3.40;2.15;;;24.10;99.90;;;;;;1043130;28;20021;-73
2022/07/31 01:47:02;;;;;;;3.08;2.28;;;24.20;99.90;;;;;;1042806;28;20012;-74
2022/07/31 01:47:34;;;;;;;2.92;2.33;;;24.10;99.90;;;;;;1043217;28;20064;-73
2022/07/31 01:48:05;;;;;;;3.63;2.05;;;24.10;99.90;;;;;;1043074;28;20759;-73
2022/07/31 01:48:37;;;;;;;3.75;2.35;;;24.10;99.90;;;;;;1043656;28;20088;-73
2022/07/31 01:49:10;;;;;;;2.30;2.08;;;24.10;99.90;;;;;;1043067;28;20017;-73
2022/07/31 01:49:42;;;;;;;4.70;2.20;;;24.10;99.90;;;;;;1043413;28;20021;-74
2022/07/31 01:50:15;;;;;;;4.40;2.17;;;24.20;99.90;;;;;;1042861;28;20017;-73
2022/07/31 01:50:48;;;;;;;3.15;2.08;;;24.10;99.90;;;;;;1043043;28;20037;-73
2022/07/31 01:51:22;;;;;;;3.20;2.60;;;24.10;99.90;;;;;;1042683;28;20116;-72
2022/07/31 01:51:54;;;;;;;3.03;2.15;;;24.10;99.90;;;;;;1042993;28;20029;-74
2022/07/31 01:52:27;;;;;;;4.47;2.90;;;24.10;99.90;;;;;;1042617;28;20062;-73
2022/07/31 01:52:59;;;;;;;3.17;2.60;;;24.10;99.90;;;;;;1042995;28;20009;-74
2022/07/31 01:53:30;;;;;;;2.42;2.20;;;24.10;99.90;;;;;;1042595;28;20017;-74
2022/07/31 01:54:02;;;;;;;2.40;2.20;;;24.10;99.90;;;;;;1043269;28;20017;-73
2022/07/31 01:54:35;;;;;;;2.58;2.17;;;24.10;99.90;;;;;;1041609;28;20017;-73
2022/07/31 01:55:08;;;;;;;3.53;2.78;;;24.10;99.90;;;;;;1040144;28;20027;-73
2022/07/31 01:55:41;;;;;;;2.75;2.25;;;24.10;99.90;;;;;;1037386;28;20029;-76
2022/07/31 01:56:18;;;;;;;4.30;2.03;;;24.10;99.90;;;;;;1037026;28;20051;-74
2022/07/31 01:56:49;;;;;;;3.80;2.60;;;24.00;99.90;;;;;;1038707;28;20091;-73
2022/07/31 01:57:22;;;;;;;4.10;2.47;;;24.00;99.90;;;;;;1043368;28;20436;-73
2022/07/31 01:57:54;;;;;;;2.60;2.30;;;24.00;99.90;;;;;;1042774;28;20385;-72
2022/07/31 01:58:26;;;;;;;2.90;2.40;;;24.10;99.90;;;;;;1041506;28;20100;-73
2022/07/31 01:59:01;;;;;;;3.00;2.38;;;24.00;99.90;;;;;;1038796;28;20175;-73
2022/07/31 01:59:34;;;;;;;3.40;2.58;;;24.00;99.90;;;;;;1038929;28;20013;-73
2022/07/31 02:00:08;;;;;;;2.80;2.25;;;24.00;99.90;;;;;;1038594;28;20021;-74
2022/07/31 02:00:39;;;;;;;3.22;2.30;;;24.00;99.90;;;;;;1038805;28;20457;-73
2022/07/31 02:01:12;;;;;;;3.00;2.33;;;24.00;99.90;;;;;;1038972;28;20025;-73
2022/07/31 02:01:44;;;;;;;2.38;2.00;;;24.00;99.90;;;;;;1035579;28;20030;-73
2022/07/31 02:02:16;;;;;;;3.38;2.45;;;24.00;99.90;;;;;;1038878;28;20010;-74
2022/07/31 02:02:50;;;;;;;2.80;2.15;;;24.00;99.90;;;;;;1038745;28;20052;-73
2022/07/31 02:03:22;;;;;;;2.72;2.20;;;23.30;99.90;;;;;;1039039;28;20017;-74
2022/07/31 02:03:55;;;;;;;2.50;2.05;;;24.00;99.90;;;;;;1040056;28;20021;-74
2022/07/31 02:04:27;;;;;;;2.58;2.22;;;24.00;99.90;;;;;;1043132;28;20028;-72
2022/07/31 02:04:58;;;;;;;2.17;1.98;;;24.00;99.90;;;;;;1043235;28;20019;-73
2022/07/31 02:05:29;;;;;;;2.42;2.22;;;24.00;99.90;;;;;;1039362;28;20076;-73
2022/07/31 02:06:02;;;;;;;3.87;2.23;;;24.00;99.90;;;;;;1038966;28;20087;-72
2022/07/31 02:06:33;;;;;;;3.10;2.38;;;24.00;99.90;;;;;;1039196;28;20480;-73
2022/07/31 02:07:06;;;;;;;3.70;2.45;;;24.00;99.90;;;;;;1038474;28;20047;-73
2022/07/31 02:07:39;;;;;;;4.40;2.95;;;24.00;99.90;;;;;;1038936;28;20079;-74
2022/07/31 02:08:12;;;;;;;3.92;2.22;;;24.00;99.90;;;;;;1038743;28;20051;-73
2022/07/31 02:08:49;;;;;;;2.70;2.20;;;24.00;99.90;;;;;;1039172;28;20017;-72
2022/07/31 02:09:21;;;;;;;3.47;2.40;;;24.00;99.90;;;;;;1039133;28;20021;-74
2022/07/31 02:09:53;;;;;;;5.30;2.10;;;24.00;99.90;;;;;;1038810;28;20455;-73
2022/07/31 02:10:25;;;;;;;2.45;2.00;;;24.00;99.90;;;;;;1038463;28;20024;-72
2022/07/31 02:10:56;;;;;;;2.60;2.00;;;24.00;99.90;;;;;;1037605;28;20014;-73
2022/07/31 02:11:27;;;;;;;2.92;2.08;;;24.00;99.90;;;;;;1038818;28;20045;-73
2022/07/31 02:11:59;;;;;;;2.15;1.90;;;24.00;99.90;;;;;;1038645;28;20300;-73
2022/07/31 02:12:31;;;;;;;2.90;2.25;;;24.00;99.90;;;;;;1037131;28;20076;-72
2022/07/31 02:13:02;;;;;;;3.17;2.00;;;24.00;99.90;;;;;;1036075;28;20021;-73
2022/07/31 02:13:36;;;;;;;3.05;2.22;;;24.00;99.90;;;;;;1037250;28;20045;-71
2022/07/31 02:14:08;;;;;;;3.30;2.42;;;24.00;99.90;;;;;;1037197;28;20010;-72
2022/07/31 02:14:41;;;;;;;3.17;2.30;;;24.00;99.90;;;;;;1041822;28;20013;-72
2022/07/31 02:15:15;;;;;;;2.80;2.15;;;24.00;99.90;;;;;;1039202;28;20056;-72
2022/07/31 02:15:46;;;;;;;2.40;2.00;;;24.00;99.90;;;;;;1038461;28;20013;-71
2022/07/31 02:16:18;;;;;;;3.17;2.35;;;24.00;99.90;;;;;;1035113;28;20029;-73
2022/07/31 02:16:49;;;;;;;4.70;2.40;;;24.00;99.90;;;;;;1034462;28;20025;-74
2022/07/31 02:17:20;;;;;;;3.17;2.30;;;24.00;99.90;;;;;;1035220;28;20022;-75
2022/07/31 02:17:53;;;;;;;4.23;2.40;;;24.00;99.90;;;;;;1040820;28;20017;-73
2022/07/31 02:18:24;;;;;;;4.30;2.30;;;24.00;99.90;;;;;;1041958;28;20624;-73
2022/07/31 02:18:57;;;;;;;2.20;2.00;;;24.00;99.90;;;;;;1038811;28;20014;-73
2022/07/31 02:19:28;;;;;;;2.58;2.10;;;24.00;99.90;;;;;;1041095;28;20100;-73
2022/07/31 02:20:00;;;;;;;2.92;2.45;;;24.00;99.90;;;;;;1039160;28;20080;-73
2022/07/31 02:20:32;;;;;;;3.80;2.47;;;24.00;99.90;;;;;;1038723;28;20442;-71
2022/07/31 02:21:02;;;;;;;2.65;1.98;;;24.00;99.90;;;;;;1038427;28;20056;-71
2022/07/31 02:21:33;;;;;;;2.93;2.30;;;24.00;99.90;;;;;;1039112;28;20108;-73
2022/07/31 02:22:04;;;;;;;2.00;1.80;;;24.00;99.90;;;;;;1042843;28;20021;-72
2022/07/31 02:22:35;;;;;;;2.50;2.20;;;24.00;99.90;;;;;;1043103;28;20408;-71
2022/07/31 02:23:06;;;;;;;2.60;2.40;;;24.00;99.90;;;;;;1038659;28;20584;-72
2022/07/31 02:23:37;;;;;;;3.55;2.17;;;24.00;99.90;;;;;;1039148;28;20357;-72
2022/07/31 02:24:08;;;;;;;2.67;2.23;;;24.00;99.90;;;;;;1038675;28;20373;-73
2022/07/31 02:24:38;;;;;;;2.33;1.77;;;24.00;99.90;;;;;;1039245;28;20021;-73
2022/07/31 02:25:10;;;;;;;2.70;2.10;;;24.00;99.90;;;;;;1040949;28;20086;-72
2022/07/31 02:25:42;;;;;;;3.25;2.20;;;24.00;99.90;;;;;;1040103;28;20032;-72
2022/07/31 02:26:15;;;;;;;2.72;2.13;;;24.00;99.90;;;;;;1040901;28;20021;-72
2022/07/31 02:26:47;;;;;;;2.55;2.17;;;24.00;99.90;;;;;;1040544;28;20143;-72
2022/07/31 02:27:18;;;;;;;2.30;2.00;;;24.00;99.90;;;;;;1042141;28;20052;-72
2022/07/31 02:27:49;;;;;;;2.75;1.92;;;24.00;99.90;;;;;;1040748;28;20024;-72
2022/07/31 02:28:21;;;;;;;2.67;2.03;;;24.00;99.90;;;;;;1039247;28;20643;-72
2022/07/31 02:28:52;;;;;;;2.58;2.10;;;24.00;99.90;;;;;;1040636;28;20020;-71
2022/07/31 02:29:24;;;;;;;3.95;2.30;;;24.00;99.90;;;;;;1038674;28;20071;-73
2022/07/31 02:29:58;;;;;;;2.75;1.92;;;24.00;99.90;;;;;;1041246;28;20045;-73
2022/07/31 02:30:31;;;;;;;2.78;2.00;;;24.00;99.90;;;;;;1038510;28;20017;-73
2022/07/31 02:31:02;;;;;;;2.38;2.17;;;24.00;99.90;;;;;;1038705;28;20013;-74
2022/07/31 02:31:35;;;;;;;3.10;2.38;;;24.00;99.90;;;;;;1038771;28;20030;-72
2022/07/31 02:32:07;;;;;;;2.28;1.83;;;24.00;99.90;;;;;;1038747;28;20099;-72
2022/07/31 02:32:39;;;;;;;2.22;2.03;;;24.00;99.90;;;;;;1038734;28;20645;-72
2022/07/31 02:33:17;;;;;;;2.80;2.05;;;24.00;99.90;;;;;;1038633;28;20601;-72
2022/07/31 02:33:50;;;;;;;2.78;2.47;;;24.00;99.90;;;;;;1034797;28;20064;-73
2022/07/31 02:34:23;;;;;;;3.50;1.95;;;24.00;99.90;;;;;;1031936;28;20026;-73
2022/07/31 02:34:55;;;;;;;2.63;1.95;;;24.00;99.90;;;;;;1034865;28;20022;-72
2022/07/31 02:35:27;;;;;;;4.30;2.08;;;24.00;99.90;;;;;;1035422;28;20486;-72
2022/07/31 02:35:59;;;;;;;2.15;1.95;;;24.00;99.90;;;;;;1034635;28;20022;-72
2022/07/31 02:36:33;;;;;;;2.78;2.00;;;24.00;99.90;;;;;;1038711;28;20029;-72
2022/07/31 02:37:06;;;;;;;2.88;2.22;;;24.00;99.90;;;;;;1034382;28;20025;-72
2022/07/31 02:37:39;;;;;;;2.33;1.90;;;24.00;99.90;;;;;;1035416;28;20026;-74
2022/07/31 02:38:11;;;;;;;2.70;2.28;;;23.90;99.90;;;;;;1035655;28;20018;-72
2022/07/31 02:38:43;;;;;;;2.42;2.13;;;24.00;99.90;;;;;;1039504;28;20120;-72
2022/07/31 02:39:14;;;;;;;2.85;1.90;;;23.90;99.90;;;;;;1043071;28;20016;-72
2022/07/31 02:39:45;;;;;;;3.80;2.20;;;24.00;99.90;;;;;;1039997;28;20032;-72
2022/07/31 02:40:18;;;;;;;2.78;2.20;;;24.00;99.90;;;;;;1041458;28;20302;-72
2022/07/31 02:40:51;;;;;;;3.35;2.08;;;23.90;99.90;;;;;;1042959;28;20021;-72
2022/07/31 02:41:23;;;;;;;3.63;2.15;;;24.00;99.90;;;;;;1040980;28;20032;-72
2022/07/31 02:41:56;;;;;;;3.03;2.00;;;24.00;99.90;;;;;;1038645;28;20472;-72
2022/07/31 02:42:28;;;;;;;2.67;2.10;;;23.90;99.90;;;;;;1039406;28;20024;-72
2022/07/31 02:42:58;;;;;;;2.78;2.00;;;23.90;99.90;;;;;;1038716;28;20022;-72
2022/07/31 02:43:31;;;;;;;1.90;1.70;;;24.00;99.90;;;;;;1039016;28;20013;-72
2022/07/31 02:44:03;;;;;;;3.83;2.42;;;23.90;99.90;;;;;;1038323;28;20393;-72
2022/07/31 02:44:34;;;;;;;2.35;2.10;;;23.90;99.90;;;;;;1038875;28;20028;-72
2022/07/31 02:45:09;;;;;;;2.90;2.08;;;24.00;99.90;;;;;;1038410;28;20018;-72
2022/07/31 02:45:41;;;;;;;4.13;2.20;;;23.90;99.90;;;;;;1035655;28;20028;-74
2022/07/31 02:46:13;;;;;;;2.40;2.10;;;23.90;99.90;;;;;;1034226;28;20022;-72
2022/07/31 02:46:44;;;;;;;2.30;2.08;;;23.90;99.90;;;;;;1034542;28;20161;-72
2022/07/31 02:47:15;;;;;;;3.37;1.83;;;23.90;99.90;;;;;;1034967;28;20025;-75
2022/07/31 02:47:47;;;;;;;2.30;2.10;;;23.90;99.90;;;;;;1038868;28;20320;-72
2022/07/31 02:48:17;;;;;;;3.17;2.05;;;23.90;99.90;;;;;;1038513;28;20833;-73
2022/07/31 02:48:49;;;;;;;2.27;1.70;;;23.90;99.90;;;;;;1042592;28;20873;-73
2022/07/31 02:49:20;;;;;;;2.90;2.05;;;23.90;99.90;;;;;;1038354;28;20021;-72
2022/07/31 02:49:53;;;;;;;3.63;2.20;;;23.90;99.90;;;;;;1035075;28;20021;-72
2022/07/31 02:50:24;;;;;;;2.55;1.98;;;23.90;99.90;;;;;;1038339;28;20009;-73
2022/07/31 02:50:56;;;;;;;2.45;2.05;;;23.90;99.90;;;;;;1031067;28;20361;-73
2022/07/31 02:51:27;;;;;;;4.97;2.28;;;23.90;99.90;;;;;;1034414;28;20025;-71